F/V Pedro Jose Berri — EDYX — position and weather

sailwx.info

Track history (hours):
 
Tides and Currents Weather Stations Pressure Air Temp Water Temp Dewpoint Dewpoint Depression Visibility Wind Speed Wind Dir Waves Ship Positions

F/V Pedro Jose Berri

Last reported at 2017-Sep-03 15:43 UTC. Time now 2017-Sep-19 15:22 UTC.
Position N 44°05' W 002°23'.
Warning: this ship's position is 15 days out of date.

Length 34 m.

Type: Fishing. MMSI: 224052460.

Date/timePositionNaut miles runAvg speedWind from/ knotsBaromVisibWave heightAir tempDewpointWater temp
2017-Sep-03 15:43N 44°05' W 002°23'2 8.8
2017-Sep-03 15:30N 44°07' W 002°25'  
2017-Aug-30 06:03N 43°46' W 005°16'1 7.6
2017-Aug-30 05:54N 43°46' W 005°18'2 2.4
2017-Aug-30 05:00N 43°45' W 005°20'0 0.5
2017-Aug-30 04:12N 43°45' W 005°20'2 8.6
2017-Aug-30 04:00N 43°43' W 005°21'4 8.3
2017-Aug-30 03:30N 43°40' W 005°25'4 8.6
2017-Aug-30 03:00N 43°37' W 005°30'5 9.0
2017-Aug-30 02:30N 43°36' W 005°36'4 9.0
2017-Aug-30 02:00N 43°34' W 005°41'1 1.1
2017-Aug-30 01:30N 43°33' W 005°42'0 0.0
2017-Aug-30 01:00N 43°33' W 005°42'0 0.0
2017-Aug-30 00:30N 43°33' W 005°42'0 0.0
2017-Aug-30 00:00N 43°33' W 005°42'0 0.0
2017-Aug-29 23:12N 43°33' W 005°42'25 5.6
2017-Aug-29 18:50N 43°48' W 005°14'1 2.3
2017-Aug-29 18:15N 43°49' W 005°13'12 9.0
2017-Aug-29 16:55N 43°45' W 005°29'118 5.3
2017-Aug-28 18:31N 44°31' W 002°56'010.3
2017-Aug-28 18:29N 44°31' W 002°56'25 8.4
2017-Aug-28 15:33N 44°40' W 002°24'4 2.8
2017-Aug-28 14:16N 44°44' W 002°23'1 4.6
2017-Aug-28 14:00N 44°45' W 002°25'3 5.5
2017-Aug-28 13:31N 44°43' W 002°28'5 9.3
2017-Aug-28 13:00N 44°41' W 002°33'5 7.9
2017-Aug-28 12:26N 44°39' W 002°39'1 1.1
2017-Aug-28 11:59N 44°40' W 002°40'2 4.7
2017-Aug-28 11:30N 44°37' W 002°39'3 5.1
2017-Aug-28 11:00N 44°36' W 002°35'3 5.7
2017-Aug-28 10:30N 44°38' W 002°32'43 3.3
2017-Aug-27 21:27N 45°13' W 001°56'510.3
2017-Aug-27 21:00N 45°09' W 002°01'510.1
2017-Aug-27 20:30N 45°07' W 002°06'510.0
2017-Aug-27 20:00N 45°04' W 002°12'14 7.6
2017-Aug-27 18:13N 44°59' W 002°30'2 7.6
2017-Aug-27 17:58N 45°01' W 002°30'4 1.0
2017-Aug-27 14:06N 44°59' W 002°25'110.4
2017-Aug-27 14:00N 44°59' W 002°23'3 5.1
2017-Aug-27 13:31N 44°57' W 002°22'1 2.3
2017-Aug-27 13:00N 44°56' W 002°22'5 9.2
2017-Aug-27 12:30N 44°54' W 002°28'4 7.5
2017-Aug-27 12:00N 44°54' W 002°34'5 9.3
2017-Aug-27 11:30N 44°53' W 002°40'9 7.6
2017-Aug-27 10:18N 44°49' W 002°51'12 8.3
2017-Aug-27 08:49N 44°41' W 003°05'5 9.1
2017-Aug-27 08:18N 44°39' W 003°10'51 4.2
2017-Aug-26 20:10N 44°15' W 004°13'  
Track history (hours):
 
Tides and Currents Weather Stations Pressure Air Temp Water Temp Dewpoint Dewpoint Depression Visibility Wind Speed Wind Dir Waves Ship Positions

F/V Pedro Jose Berri

Last reported at 2017-Sep-03 15:43 UTC. Time now 2017-Sep-19 15:22 UTC.
Position N 44°05' W 002°23'.
Warning: this ship's position is 15 days out of date.

Length 34 m.

Type: Fishing. MMSI: 224052460.

Date/timePositionNaut miles runAvg speedWind from/ knotsBaromVisibWave heightAir tempDewpointWater temp
2017-Sep-03 15:43N 44°05' W 002°23'2 8.8
2017-Sep-03 15:30N 44°07' W 002°25'  
2017-Aug-30 06:03N 43°46' W 005°16'1 7.6
2017-Aug-30 05:54N 43°46' W 005°18'2 2.4
2017-Aug-30 05:00N 43°45' W 005°20'0 0.5
2017-Aug-30 04:12N 43°45' W 005°20'2 8.6
2017-Aug-30 04:00N 43°43' W 005°21'4 8.3
2017-Aug-30 03:30N 43°40' W 005°25'4 8.6
2017-Aug-30 03:00N 43°37' W 005°30'5 9.0
2017-Aug-30 02:30N 43°36' W 005°36'4 9.0
2017-Aug-30 02:00N 43°34' W 005°41'1 1.1
2017-Aug-30 01:30N 43°33' W 005°42'0 0.0
2017-Aug-30 01:00N 43°33' W 005°42'0 0.0
2017-Aug-30 00:30N 43°33' W 005°42'0 0.0
2017-Aug-30 00:00N 43°33' W 005°42'0 0.0
2017-Aug-29 23:12N 43°33' W 005°42'25 5.6
2017-Aug-29 18:50N 43°48' W 005°14'1 2.3
2017-Aug-29 18:15N 43°49' W 005°13'12 9.0
2017-Aug-29 16:55N 43°45' W 005°29'118 5.3
2017-Aug-28 18:31N 44°31' W 002°56'010.3
2017-Aug-28 18:29N 44°31' W 002°56'25 8.4
2017-Aug-28 15:33N 44°40' W 002°24'4 2.8
2017-Aug-28 14:16N 44°44' W 002°23'1 4.6
2017-Aug-28 14:00N 44°45' W 002°25'3 5.5
2017-Aug-28 13:31N 44°43' W 002°28'5 9.3
2017-Aug-28 13:00N 44°41' W 002°33'5 7.9
2017-Aug-28 12:26N 44°39' W 002°39'1 1.1
2017-Aug-28 11:59N 44°40' W 002°40'2 4.7
2017-Aug-28 11:30N 44°37' W 002°39'3 5.1
2017-Aug-28 11:00N 44°36' W 002°35'3 5.7
2017-Aug-28 10:30N 44°38' W 002°32'43 3.3
2017-Aug-27 21:27N 45°13' W 001°56'510.3
2017-Aug-27 21:00N 45°09' W 002°01'510.1
2017-Aug-27 20:30N 45°07' W 002°06'510.0
2017-Aug-27 20:00N 45°04' W 002°12'14 7.6
2017-Aug-27 18:13N 44°59' W 002°30'2 7.6
2017-Aug-27 17:58N 45°01' W 002°30'4 1.0
2017-Aug-27 14:06N 44°59' W 002°25'110.4
2017-Aug-27 14:00N 44°59' W 002°23'3 5.1
2017-Aug-27 13:31N 44°57' W 002°22'1 2.3
2017-Aug-27 13:00N 44°56' W 002°22'5 9.2
2017-Aug-27 12:30N 44°54' W 002°28'4 7.5
2017-Aug-27 12:00N 44°54' W 002°34'5 9.3
2017-Aug-27 11:30N 44°53' W 002°40'9 7.6
2017-Aug-27 10:18N 44°49' W 002°51'12 8.3
2017-Aug-27 08:49N 44°41' W 003°05'5 9.1
2017-Aug-27 08:18N 44°39' W 003°10'51 4.2
2017-Aug-26 20:10N 44°15' W 004°13'  

Dump ship's entire track history